createdAt,value
2023-04-16T00:00:28.512Z,9.27
2023-04-16T00:03:16.233Z,10.32
2023-04-16T00:05:43.624Z,10.30
2023-04-16T00:08:10.751Z,8.83
2023-04-16T00:10:38.443Z,10.02
2023-04-16T00:13:05.478Z,12.52
2023-04-16T00:15:32.789Z,10.57
2023-04-16T00:17:59.681Z,10.23
2023-04-16T00:20:26.954Z,8.77
2023-04-16T00:22:53.838Z,7.85
2023-04-16T00:25:21.765Z,9.02
2023-04-16T00:27:48.612Z,10.27
2023-04-16T00:30:16.030Z,10.40
2023-04-16T00:32:43.174Z,14.50
2023-04-16T00:35:10.601Z,13.00
2023-04-16T00:37:37.506Z,12.57
2023-04-16T00:40:05.680Z,11.73
2023-04-16T00:42:32.583Z,12.07
2023-04-16T00:44:59.807Z,11.60
2023-04-16T00:47:28.203Z,10.98
2023-04-16T00:49:55.710Z,12.57
2023-04-16T00:52:22.733Z,13.52
2023-04-16T00:54:52.752Z,11.68
2023-04-16T00:57:21.240Z,10.77
2023-04-16T00:59:48.466Z,12.15
2023-04-16T01:02:15.957Z,13.18
2023-04-16T01:04:43.360Z,11.98
2023-04-16T01:07:10.234Z,10.35
2023-04-16T01:09:37.908Z,9.73
2023-04-16T01:12:04.821Z,10.95
2023-04-16T01:14:36.554Z,12.02
2023-04-16T01:17:04.407Z,11.25
2023-04-16T01:19:31.648Z,10.82
2023-04-16T01:21:59.054Z,12.10
2023-04-16T01:24:26.457Z,10.10
2023-04-16T01:26:53.708Z,9.60
2023-04-16T01:29:20.957Z,11.18
2023-04-16T01:31:49.498Z,12.13
2023-04-16T01:34:25.589Z,9.10
2023-04-16T01:36:52.803Z,9.88
2023-04-16T01:39:20.064Z,8.13
2023-04-16T01:41:46.965Z,7.70
2023-04-16T01:44:14.349Z,9.07
2023-04-16T01:46:43.773Z,10.97
2023-04-16T01:49:11.372Z,9.48
2023-04-16T01:51:38.879Z,8.57
2023-04-16T01:54:06.213Z,8.52
2023-04-16T01:56:33.179Z,9.43
2023-04-16T01:59:00.557Z,8.40
2023-04-16T02:01:33.548Z,6.88
2023-04-16T02:04:01.059Z,7.25
2023-04-16T02:06:28.123Z,9.23
2023-04-16T02:08:55.465Z,7.75
2023-04-16T02:11:22.425Z,7.07
2023-04-16T02:13:51.046Z,7.07
2023-04-16T02:16:19.037Z,7.72
2023-04-16T02:18:52.415Z,8.40
2023-04-16T02:21:21.638Z,8.45
2023-04-16T02:23:52.182Z,10.03
2023-04-16T02:26:24.066Z,9.23
2023-04-16T02:28:51.467Z,8.38
2023-04-16T02:31:23.661Z,7.30
2023-04-16T02:33:51.107Z,8.43
2023-04-16T02:36:18.333Z,9.93
2023-04-16T02:38:45.565Z,9.10
2023-04-16T02:41:12.587Z,7.70
2023-04-16T02:43:39.845Z,7.93
2023-04-16T02:46:06.968Z,7.57
2023-04-16T02:48:34.549Z,9.10
2023-04-16T02:51:01.644Z,8.13
2023-04-16T02:53:29.116Z,9.07
2023-04-16T02:55:56.290Z,9.35
2023-04-16T02:58:25.022Z,9.52
2023-04-16T03:00:53.574Z,9.00
2023-04-16T03:03:22.101Z,8.40
2023-04-16T03:05:49.168Z,9.68
2023-04-16T03:08:17.092Z,10.63
2023-04-16T03:10:44.053Z,8.80
2023-04-16T03:13:11.317Z,10.67
2023-04-16T03:15:38.302Z,9.95
2023-04-16T03:18:05.743Z,9.68
2023-04-16T03:20:32.905Z,8.77
2023-04-16T03:23:00.134Z,7.30
2023-04-16T03:25:27.066Z,8.53
2023-04-16T03:27:54.759Z,8.38
2023-04-16T03:30:22.156Z,8.15
2023-04-16T03:32:49.506Z,8.15
2023-04-16T03:35:16.722Z,8.77
2023-04-16T03:37:45.437Z,10.90
2023-04-16T03:40:12.978Z,10.43
2023-04-16T03:42:40.294Z,9.73
2023-04-16T03:45:09.613Z,9.65
2023-04-16T03:47:38.272Z,14.10
2023-04-16T03:50:05.709Z,9.07
2023-04-16T03:52:33.114Z,10.18
2023-04-16T03:55:00.104Z,11.20
2023-04-16T03:57:30.620Z,14.65
2023-04-16T04:00:03.776Z,9.90
2023-04-16T04:02:41.679Z,10.53
2023-04-16T04:05:15.106Z,9.23
2023-04-16T04:07:43.048Z,10.35
2023-04-16T04:10:10.342Z,8.93
2023-04-16T04:12:40.826Z,9.95
2023-04-16T04:15:08.543Z,7.80
2023-04-16T04:17:35.891Z,11.40
2023-04-16T04:20:03.330Z,9.75
2023-04-16T04:22:31.915Z,10.18
2023-04-16T04:24:59.129Z,11.95
2023-04-16T04:27:28.668Z,10.07
2023-04-16T04:29:55.592Z,13.88
2023-04-16T04:32:23.132Z,10.95
2023-04-16T04:34:50.324Z,10.07
2023-04-16T04:37:17.606Z,12.05
2023-04-16T04:39:44.824Z,9.87
2023-04-16T04:42:13.069Z,12.95
2023-04-16T04:44:40.032Z,13.57
2023-04-16T04:47:08.790Z,10.63
2023-04-16T04:49:35.737Z,12.45
2023-04-16T04:52:03.849Z,11.80
2023-04-16T04:54:32.858Z,11.38
2023-04-16T04:57:00.541Z,9.82
2023-04-16T04:59:29.270Z,12.00
2023-04-16T05:01:56.546Z,11.52
2023-04-16T05:04:23.477Z,11.93
2023-04-16T05:06:50.709Z,9.48
2023-04-16T05:09:17.684Z,10.05
2023-04-16T05:11:44.885Z,11.80
2023-04-16T05:14:11.840Z,10.23
2023-04-16T05:16:39.172Z,13.13
2023-04-16T05:19:06.277Z,11.30
2023-04-16T05:21:34.130Z,10.73
2023-04-16T05:24:01.053Z,10.38
2023-04-16T05:26:28.301Z,12.75
2023-04-16T05:28:55.220Z,8.83
2023-04-16T05:31:22.612Z,9.85
2023-04-16T05:33:49.614Z,10.20
2023-04-16T05:36:17.068Z,8.77
2023-04-16T05:38:43.942Z,10.45
2023-04-16T05:41:11.186Z,8.53
2023-04-16T05:43:38.091Z,8.07
2023-04-16T05:46:05.574Z,9.90
2023-04-16T05:48:32.757Z,10.85
2023-04-16T05:51:00.097Z,8.77
2023-04-16T05:53:27.448Z,9.73
2023-04-16T05:55:54.740Z,8.95
2023-04-16T05:58:21.667Z,10.05
2023-04-16T06:00:49.088Z,10.55
2023-04-16T06:03:16.198Z,8.90
2023-04-16T06:05:43.838Z,9.77
2023-04-16T06:08:11.015Z,9.82
2023-04-16T06:10:38.391Z,10.68
2023-04-16T06:13:05.284Z,9.60
2023-04-16T06:15:32.571Z,10.15
2023-04-16T06:18:00.973Z,9.57
2023-04-16T06:20:28.491Z,9.57
2023-04-16T06:22:55.954Z,10.45
2023-04-16T06:25:23.424Z,9.27
2023-04-16T06:27:50.337Z,8.43
2023-04-16T06:30:20.252Z,9.07
2023-04-16T06:32:47.336Z,9.45
2023-04-16T06:35:14.782Z,8.32
2023-04-16T06:37:41.861Z,9.70
2023-04-16T06:40:09.639Z,8.98
2023-04-16T06:42:36.824Z,9.20
2023-04-16T06:45:04.564Z,9.35
2023-04-16T06:47:31.480Z,8.15
2023-04-16T06:49:58.728Z,8.45
2023-04-16T06:52:25.755Z,9.25
2023-04-16T06:54:53.075Z,8.20
2023-04-16T06:57:20.091Z,8.93
2023-04-16T06:59:47.350Z,9.00
2023-04-16T07:02:14.625Z,9.30
2023-04-16T07:04:42.074Z,8.05
2023-04-16T07:07:09.131Z,8.80
2023-04-16T07:09:36.819Z,7.93
2023-04-16T07:12:03.846Z,7.90
2023-04-16T07:14:31.344Z,7.90
2023-04-16T07:16:58.571Z,6.80
2023-04-16T07:19:26.182Z,7.43
2023-04-16T07:21:53.128Z,7.72
2023-04-16T07:24:20.475Z,7.43
2023-04-16T07:26:47.407Z,7.80
2023-04-16T07:29:14.708Z,7.05
2023-04-16T07:31:41.678Z,7.17
2023-04-16T07:34:09.321Z,7.78
2023-04-16T07:36:36.458Z,7.85
2023-04-16T07:39:04.964Z,6.35
2023-04-16T07:41:32.051Z,7.05
2023-04-16T07:43:59.431Z,8.23
2023-04-16T07:46:30.451Z,7.60
2023-04-16T07:49:03.476Z,9.23
2023-04-16T07:51:30.399Z,7.53
2023-04-16T07:53:57.651Z,9.25
2023-04-16T07:56:24.540Z,9.13
2023-04-16T07:58:51.845Z,7.30
2023-04-16T08:01:18.872Z,7.00
2023-04-16T08:03:46.384Z,8.23
2023-04-16T08:06:13.487Z,7.65
2023-04-16T08:08:40.804Z,7.70
2023-04-16T08:11:07.774Z,7.43
2023-04-16T08:13:35.050Z,7.57
2023-04-16T08:16:02.435Z,11.07
2023-04-16T08:18:29.717Z,12.05
2023-04-16T08:20:56.796Z,10.50
2023-04-16T08:23:24.096Z,7.85
2023-04-16T08:25:52.921Z,8.75
2023-04-16T08:28:20.522Z,8.20
2023-04-16T08:30:47.823Z,10.38
2023-04-16T08:33:15.200Z,9.20
2023-04-16T08:35:42.391Z,7.75
2023-04-16T08:38:09.652Z,8.38
2023-04-16T08:40:40.294Z,16.80
2023-04-16T08:43:12.584Z,9.98
2023-04-16T08:45:41.953Z,11.57
2023-04-16T08:48:12.101Z,10.30
2023-04-16T08:50:41.229Z,9.02
2023-04-16T08:53:11.523Z,10.55
2023-04-16T08:55:49.017Z,11.50
2023-04-16T08:58:21.651Z,11.93
2023-04-16T09:00:51.779Z,11.70
2023-04-16T09:03:21.874Z,15.13
2023-04-16T09:05:49.756Z,14.95
2023-04-16T09:08:18.365Z,11.80
2023-04-16T09:10:45.520Z,16.23
2023-04-16T09:13:16.026Z,11.27
2023-04-16T09:15:44.318Z,15.00
2023-04-16T09:18:12.457Z,21.83
2023-04-16T09:20:39.709Z,15.52
2023-04-16T09:23:07.026Z,13.97
2023-04-16T09:25:38.701Z,13.05
2023-04-16T09:28:06.404Z,8.20
2023-04-16T09:30:34.728Z,7.90
2023-04-16T09:33:24.167Z,6.15
2023-04-16T09:35:54.136Z,5.37
2023-04-16T09:38:21.652Z,5.00
2023-04-16T09:40:48.785Z,4.55
2023-04-16T09:43:18.367Z,4.28
2023-04-16T09:45:55.220Z,5.00
2023-04-16T09:48:30.387Z,6.27
2023-04-16T09:50:58.354Z,4.63
2023-04-16T09:53:28.069Z,5.30
2023-04-16T09:55:58.802Z,6.50
2023-04-16T09:58:26.413Z,5.20
2023-04-16T10:01:03.040Z,6.60
2023-04-16T10:03:34.917Z,5.72
2023-04-16T10:06:07.414Z,6.70
2023-04-16T10:08:34.669Z,5.07
2023-04-16T10:11:02.622Z,6.28
2023-04-16T10:13:31.344Z,5.83
2023-04-16T10:15:59.011Z,4.10
2023-04-16T10:18:26.562Z,3.20
2023-04-16T10:20:53.574Z,3.30
2023-04-16T10:23:22.567Z,4.75
2023-04-16T10:25:50.263Z,3.57
2023-04-16T10:28:17.702Z,3.88
2023-04-16T10:30:52.894Z,5.10
2023-04-16T10:33:25.911Z,4.30
2023-04-16T10:36:07.997Z,4.78
2023-04-16T10:38:39.124Z,5.20
2023-04-16T10:41:07.359Z,6.07
2023-04-16T10:43:50.982Z,6.20
2023-04-16T10:46:22.153Z,7.13
2023-04-16T10:48:51.617Z,6.43
2023-04-16T10:51:32.649Z,5.90
2023-04-16T10:54:12.820Z,5.68
2023-04-16T10:56:39.718Z,6.35
2023-04-16T10:59:07.941Z,4.57
2023-04-16T11:01:42.096Z,6.07
2023-04-16T11:04:22.335Z,5.90
2023-04-16T11:07:03.635Z,5.63
2023-04-16T11:10:05.472Z,6.88
2023-04-16T11:12:38.075Z,7.20
2023-04-16T11:15:10.536Z,7.22
2023-04-16T11:17:41.724Z,7.43
2023-04-16T11:20:23.519Z,6.55
2023-04-16T11:22:52.280Z,7.97
2023-04-16T11:25:30.629Z,8.60
2023-04-16T11:27:59.377Z,7.88
2023-04-16T11:30:38.215Z,9.27
2023-04-16T11:33:06.191Z,9.07
2023-04-16T11:35:33.710Z,10.07
2023-04-16T11:38:00.757Z,9.32
2023-04-16T11:40:31.779Z,9.32
2023-04-16T11:43:13.604Z,10.37
2023-04-16T11:45:55.206Z,10.35
2023-04-16T11:48:22.507Z,9.77
2023-04-16T11:50:59.145Z,10.38
2023-04-16T11:53:26.445Z,11.00
2023-04-16T11:55:53.591Z,10.67
2023-04-16T11:58:22.976Z,10.68
2023-04-16T12:00:52.251Z,9.77
2023-04-16T12:03:19.741Z,10.00
2023-04-16T12:05:47.468Z,9.10
2023-04-16T12:08:29.550Z,10.23
2023-04-16T12:10:56.752Z,9.85
2023-04-16T12:13:24.013Z,10.90
2023-04-16T12:15:54.545Z,9.80
2023-04-16T12:18:23.925Z,11.20
2023-04-16T12:20:54.084Z,9.83
2023-04-16T12:23:30.295Z,11.95
2023-04-16T12:26:02.802Z,13.10
2023-04-16T12:28:35.203Z,12.30
2023-04-16T12:31:03.674Z,11.45
2023-04-16T12:33:31.574Z,11.13
2023-04-16T12:35:58.655Z,15.95
2023-04-16T12:38:27.029Z,16.50
2023-04-16T12:40:57.345Z,16.45
2023-04-16T12:43:25.751Z,15.80
2023-04-16T12:45:53.361Z,16.80
2023-04-16T12:48:20.718Z,16.80
2023-04-16T12:50:47.727Z,18.02
2023-04-16T12:53:15.041Z,18.55
2023-04-16T12:55:41.962Z,15.43
2023-04-16T12:58:11.897Z,17.87
2023-04-16T13:00:40.633Z,14.13
2023-04-16T13:03:08.060Z,16.00
2023-04-16T13:05:35.276Z,16.25
2023-04-16T13:08:02.575Z,15.18
2023-04-16T13:10:29.472Z,13.90
2023-04-16T13:12:57.199Z,13.23
2023-04-16T13:15:24.102Z,16.38
2023-04-16T13:17:51.397Z,15.15
2023-04-16T13:20:18.319Z,17.48
2023-04-16T13:22:45.669Z,19.10
2023-04-16T13:25:12.679Z,18.63
2023-04-16T13:27:39.999Z,18.63
2023-04-16T13:30:07.945Z,16.35
2023-04-16T13:32:35.209Z,21.65
2023-04-16T13:35:02.232Z,17.47
2023-04-16T13:37:29.547Z,17.42
2023-04-16T13:39:56.805Z,19.67
2023-04-16T13:42:24.116Z,16.45
2023-04-16T13:44:54.318Z,20.00
2023-04-16T13:47:22.353Z,20.60
2023-04-16T13:49:49.374Z,16.60
2023-04-16T13:52:17.009Z,17.60
2023-04-16T13:54:44.225Z,20.42
2023-04-16T13:57:20.060Z,21.48
2023-04-16T13:59:47.030Z,17.43
2023-04-16T14:02:15.010Z,16.35
2023-04-16T14:04:42.214Z,19.33
2023-04-16T14:07:09.566Z,18.23
2023-04-16T14:09:36.791Z,24.95
2023-04-16T14:12:04.494Z,20.33
2023-04-16T14:14:31.428Z,19.00
2023-04-16T14:16:59.320Z,17.60
2023-04-16T14:19:26.222Z,15.52
2023-04-16T14:21:53.406Z,18.02
2023-04-16T14:24:20.461Z,16.77
2023-04-16T14:26:47.734Z,18.33
2023-04-16T14:29:14.665Z,15.50
2023-04-16T14:31:42.228Z,16.73
2023-04-16T14:34:09.167Z,16.85
2023-04-16T14:36:37.048Z,19.63
2023-04-16T14:39:04.906Z,17.10
2023-04-16T14:41:32.134Z,18.65
2023-04-16T14:43:59.565Z,16.20
2023-04-16T14:46:27.284Z,17.35
2023-04-16T14:48:54.161Z,14.73
2023-04-16T14:51:21.410Z,18.52
2023-04-16T14:53:48.614Z,15.77
2023-04-16T14:56:15.872Z,15.25
2023-04-16T14:58:43.557Z,10.63
2023-04-16T15:01:11.057Z,13.37
2023-04-16T15:03:38.303Z,10.43
2023-04-16T15:06:05.926Z,9.98
2023-04-16T15:08:34.809Z,9.02
2023-04-16T15:11:02.065Z,8.82
2023-04-16T15:13:34.108Z,8.03
2023-04-16T15:16:07.482Z,8.57
2023-04-16T15:18:34.466Z,8.98
2023-04-16T15:21:01.733Z,10.43
2023-04-16T15:23:28.642Z,10.43
2023-04-16T15:25:55.879Z,9.17
2023-04-16T15:28:22.930Z,8.95
2023-04-16T15:30:50.624Z,8.75
2023-04-16T15:33:17.540Z,9.57
2023-04-16T15:35:44.826Z,11.27
2023-04-16T15:38:11.723Z,9.73
2023-04-16T15:40:38.974Z,9.23
2023-04-16T15:43:07.017Z,8.77
2023-04-16T15:45:34.971Z,9.20
2023-04-16T15:48:01.915Z,8.25
2023-04-16T15:50:29.313Z,8.93
2023-04-16T15:52:56.716Z,8.02
2023-04-16T15:55:23.925Z,10.95
2023-04-16T15:57:50.952Z,9.15
2023-04-16T16:00:19.001Z,8.57
2023-04-16T16:02:49.922Z,7.20
2023-04-16T16:05:17.512Z,7.43
2023-04-16T16:07:44.550Z,7.55
2023-04-16T16:10:13.323Z,7.20
2023-04-16T16:12:41.154Z,8.20
2023-04-16T16:15:09.309Z,8.03
2023-04-16T16:17:36.310Z,6.60
2023-04-16T16:20:04.292Z,6.57
2023-04-16T16:22:31.218Z,7.10
2023-04-16T16:24:58.636Z,5.88
2023-04-16T16:27:25.734Z,6.23
2023-04-16T16:29:52.988Z,6.43
2023-04-16T16:32:20.017Z,6.00
2023-04-16T16:34:47.272Z,4.97
2023-04-16T16:37:14.232Z,5.38
2023-04-16T16:39:41.644Z,4.93
2023-04-16T16:42:09.386Z,5.43
2023-04-16T16:44:36.988Z,5.38
2023-04-16T16:47:04.012Z,5.82
2023-04-16T16:49:31.301Z,5.53
2023-04-16T16:51:58.201Z,4.30
2023-04-16T16:54:25.591Z,4.45
2023-04-16T16:56:53.176Z,5.30
2023-04-16T16:59:20.477Z,6.07
2023-04-16T17:01:47.399Z,4.65
2023-04-16T17:04:15.035Z,5.50
2023-04-16T17:06:43.049Z,7.72
2023-04-16T17:09:11.364Z,24.95
2023-04-16T17:11:38.797Z,19.30
2023-04-16T17:14:06.168Z,11.48
2023-04-16T17:16:33.213Z,8.00
2023-04-16T17:19:01.589Z,6.78
2023-04-16T17:21:28.439Z,5.63
2023-04-16T17:23:57.654Z,7.60
2023-04-16T17:26:24.714Z,6.00
2023-04-16T17:28:51.928Z,6.13
2023-04-16T17:31:19.021Z,6.53
2023-04-16T17:33:46.469Z,5.93
2023-04-16T17:36:13.812Z,6.38
2023-04-16T17:38:44.267Z,5.53
2023-04-16T17:41:12.687Z,7.50
2023-04-16T17:43:40.074Z,6.13
2023-04-16T17:46:10.623Z,8.88
2023-04-16T17:48:38.048Z,6.82
2023-04-16T17:51:11.862Z,6.50
2023-04-16T17:53:39.421Z,7.10
2023-04-16T17:56:07.054Z,6.40
2023-04-16T17:58:35.476Z,7.05
2023-04-16T18:01:03.678Z,5.95
2023-04-16T18:03:32.653Z,5.95
2023-04-16T18:05:59.824Z,6.97
2023-04-16T18:08:30.159Z,6.90
2023-04-16T18:10:57.261Z,6.13
2023-04-16T18:13:26.454Z,6.18
2023-04-16T18:15:53.915Z,6.93
2023-04-16T18:18:21.573Z,9.13
2023-04-16T18:20:48.659Z,14.23
2023-04-16T18:23:16.354Z,11.80
2023-04-16T18:25:43.338Z,8.68
2023-04-16T18:28:13.305Z,7.30
2023-04-16T18:30:41.193Z,6.77
2023-04-16T18:33:34.263Z,10.50
2023-04-16T18:35:55.514Z,7.03
2023-04-16T18:38:22.772Z,8.88
2023-04-16T18:40:49.982Z,7.57
2023-04-16T18:43:17.780Z,7.60
2023-04-16T18:45:44.856Z,7.63
2023-04-16T18:48:12.145Z,7.55
2023-04-16T18:50:39.320Z,9.75
2023-04-16T18:53:06.607Z,8.95
2023-04-16T18:55:33.578Z,9.07
2023-04-16T18:58:00.829Z,8.68
2023-04-16T19:00:27.875Z,8.77
2023-04-16T19:02:55.275Z,9.43
2023-04-16T19:05:23.195Z,6.93
2023-04-16T19:07:50.442Z,7.40
2023-04-16T19:10:17.491Z,7.03
2023-04-16T19:12:45.130Z,6.75
2023-04-16T19:15:12.105Z,5.60
2023-04-16T19:17:40.182Z,6.60
2023-04-16T19:20:11.681Z,5.90
2023-04-16T19:22:39.023Z,5.57
2023-04-16T19:25:07.203Z,5.90
2023-04-16T19:27:35.040Z,6.97
2023-04-16T19:30:03.103Z,5.90
2023-04-16T19:32:31.031Z,7.70
2023-04-16T19:34:57.944Z,6.05
2023-04-16T19:37:25.270Z,6.57
2023-04-16T19:39:52.281Z,6.85
2023-04-16T19:42:19.583Z,6.30
2023-04-16T19:44:46.874Z,7.37
2023-04-16T19:47:14.151Z,6.78
2023-04-16T19:49:43.753Z,6.50
2023-04-16T19:52:11.003Z,6.15
2023-04-16T19:54:38.007Z,6.20
2023-04-16T19:57:05.276Z,5.57
2023-04-16T19:59:33.287Z,6.68
2023-04-16T20:02:00.929Z,15.02
2023-04-16T20:04:27.971Z,14.82
2023-04-16T20:06:55.526Z,11.85
2023-04-16T20:09:23.611Z,8.37
2023-04-16T20:11:51.725Z,8.35
2023-04-16T20:14:18.794Z,8.65
2023-04-16T20:16:46.382Z,6.50
2023-04-16T20:19:17.115Z,5.82
2023-04-16T20:21:45.876Z,9.33
2023-04-16T20:24:15.629Z,6.20
2023-04-16T20:26:43.109Z,6.20
2023-04-16T20:29:10.429Z,6.28
2023-04-16T20:31:37.905Z,5.80
2023-04-16T20:34:04.759Z,6.30
2023-04-16T20:36:32.115Z,6.07
2023-04-16T20:39:00.113Z,5.50
2023-04-16T20:41:27.731Z,5.93
2023-04-16T20:43:54.686Z,4.80
2023-04-16T20:46:25.321Z,4.73
2023-04-16T20:48:52.264Z,4.95
2023-04-16T20:51:20.166Z,4.32
2023-04-16T20:53:47.369Z,6.43
2023-04-16T20:56:17.404Z,5.28
2023-04-16T20:58:44.397Z,4.63
2023-04-16T21:01:12.137Z,4.70
2023-04-16T21:03:39.198Z,4.68
2023-04-16T21:06:06.649Z,5.35
2023-04-16T21:08:33.630Z,4.80
2023-04-16T21:11:00.904Z,4.63
2023-04-16T21:13:27.857Z,6.38
2023-04-16T21:15:55.158Z,6.88
2023-04-16T21:18:22.225Z,6.72
2023-04-16T21:20:49.672Z,7.72
2023-04-16T21:23:16.628Z,9.30
2023-04-16T21:25:43.904Z,9.05
2023-04-16T21:28:10.916Z,8.63
2023-04-16T21:30:38.599Z,5.05
2023-04-16T21:33:05.991Z,5.30
2023-04-16T21:35:34.007Z,5.23
2023-04-16T21:38:01.131Z,5.85
2023-04-16T21:40:28.427Z,5.10
2023-04-16T21:42:55.648Z,5.20
2023-04-16T21:45:22.940Z,5.63
2023-04-16T21:47:49.907Z,4.90
2023-04-16T21:50:17.220Z,4.60
2023-04-16T21:52:46.483Z,4.60
2023-04-16T21:55:14.613Z,4.90
2023-04-16T21:57:41.565Z,4.45
2023-04-16T22:00:12.405Z,7.27
2023-04-16T22:02:40.750Z,6.25
2023-04-16T22:05:09.328Z,5.60
2023-04-16T22:07:36.959Z,5.43
2023-04-16T22:10:04.832Z,6.70
2023-04-16T22:12:31.884Z,4.53
2023-04-16T22:15:02.920Z,5.30
2023-04-16T22:17:30.496Z,7.38
2023-04-16T22:20:00.614Z,6.18
2023-04-16T22:22:27.835Z,6.53
2023-04-16T22:24:55.357Z,7.90
2023-04-16T22:27:22.305Z,7.15
2023-04-16T22:29:49.636Z,7.72
2023-04-16T22:32:16.661Z,6.32
2023-04-16T22:34:44.001Z,7.57
2023-04-16T22:37:10.989Z,5.90
2023-04-16T22:39:38.226Z,5.53
2023-04-16T22:42:05.318Z,6.90
2023-04-16T22:44:32.641Z,7.20
2023-04-16T22:46:59.927Z,7.35
2023-04-16T22:49:28.381Z,6.93
2023-04-16T22:51:55.566Z,6.82
2023-04-16T22:54:22.817Z,7.47
2023-04-16T22:56:50.096Z,7.03
2023-04-16T22:59:17.463Z,7.18
2023-04-16T23:01:44.412Z,7.50
2023-04-16T23:04:11.969Z,7.70
2023-04-16T23:06:40.719Z,6.13
2023-04-16T23:09:08.578Z,9.57
2023-04-16T23:11:35.784Z,6.88
2023-04-16T23:14:05.227Z,8.00
2023-04-16T23:16:32.138Z,8.43
2023-04-16T23:18:59.388Z,7.38
2023-04-16T23:21:26.475Z,7.00
2023-04-16T23:23:53.772Z,9.98
2023-04-16T23:26:20.757Z,11.43
2023-04-16T23:28:47.991Z,12.55
2023-04-16T23:31:15.294Z,11.10
2023-04-16T23:33:42.561Z,10.80
2023-04-16T23:36:10.136Z,10.95
2023-04-16T23:38:37.351Z,8.90
2023-04-16T23:41:04.294Z,12.52
2023-04-16T23:43:31.544Z,11.20
2023-04-16T23:45:58.725Z,10.73
2023-04-16T23:48:25.980Z,11.20
2023-04-16T23:50:52.880Z,12.27
2023-04-16T23:53:20.153Z,11.48
2023-04-16T23:55:47.210Z,10.98
2023-04-16T23:58:14.459Z,10.55
